createdAt,value
2018-11-27T00:00:53.671Z,21.30
2018-11-27T00:03:21.290Z,19.37
2018-11-27T00:05:48.937Z,16.53
2018-11-27T00:08:16.571Z,18.80
2018-11-27T00:10:44.237Z,14.67
2018-11-27T00:13:11.813Z,14.33
2018-11-27T00:15:39.631Z,15.33
2018-11-27T00:18:07.285Z,14.43
2018-11-27T00:20:34.952Z,18.17
2018-11-27T00:23:02.577Z,18.27
2018-11-27T00:25:30.169Z,19.37
2018-11-27T00:27:57.721Z,21.57
2018-11-27T00:30:25.395Z,21.70
2018-11-27T00:32:53.101Z,24.13
2018-11-27T00:35:20.779Z,24.20
2018-11-27T00:37:48.422Z,20.60
2018-11-27T00:40:17.782Z,21.73
2018-11-27T00:42:45.686Z,19.13
2018-11-27T00:45:15.236Z,16.17
2018-11-27T00:47:43.582Z,14.37
2018-11-27T00:50:15.262Z,15.40
2018-11-27T00:52:42.962Z,13.00
2018-11-27T00:55:13.624Z,14.40
2018-11-27T00:57:42.242Z,13.80
2018-11-27T01:00:18.502Z,15.43
2018-11-27T01:02:46.275Z,13.80
2018-11-27T01:05:15.050Z,18.37
2018-11-27T01:07:43.925Z,19.47
2018-11-27T01:10:15.672Z,19.00
2018-11-27T01:12:43.529Z,16.83
2018-11-27T01:15:11.972Z,16.40
2018-11-27T01:17:41.057Z,14.07
2018-11-27T01:20:13.693Z,11.33
2018-11-27T01:22:41.549Z,15.70
2018-11-27T01:25:09.957Z,16.90
2018-11-27T01:27:37.757Z,14.70
2018-11-27T01:30:08.341Z,13.57
2018-11-27T01:32:36.013Z,12.07
2018-11-27T01:35:04.566Z,13.33
2018-11-27T01:37:32.225Z,13.43
2018-11-27T01:39:59.944Z,12.47
2018-11-27T01:42:27.625Z,12.30
2018-11-27T01:44:55.268Z,11.10
2018-11-27T01:47:22.912Z,9.37
2018-11-27T01:49:50.499Z,9.73
2018-11-27T01:52:18.158Z,10.80
2018-11-27T01:54:45.833Z,14.63
2018-11-27T01:57:13.454Z,17.60
2018-11-27T01:59:41.162Z,22.50
2018-11-27T02:02:08.815Z,16.70
2018-11-27T02:04:36.437Z,20.00
2018-11-27T02:07:04.229Z,23.23
2018-11-27T02:09:31.876Z,18.60
2018-11-27T02:11:59.723Z,22.23
2018-11-27T02:14:27.419Z,18.53
2018-11-27T02:16:55.072Z,20.70
2018-11-27T02:19:22.671Z,21.23
2018-11-27T02:21:50.395Z,27.77
2018-11-27T02:24:18.134Z,25.83
2018-11-27T02:26:45.863Z,27.87
2018-11-27T02:29:14.550Z,27.23
2018-11-27T02:31:42.262Z,28.90
2018-11-27T02:34:09.886Z,34.67
2018-11-27T02:36:37.537Z,36.23
2018-11-27T02:39:06.114Z,37.47
2018-11-27T02:41:33.754Z,46.57
2018-11-27T02:44:01.379Z,44.90
2018-11-27T02:46:29.109Z,46.23
2018-11-27T02:48:57.894Z,40.10
2018-11-27T02:51:25.533Z,37.10
2018-11-27T02:53:53.190Z,35.77
2018-11-27T02:56:20.808Z,40.83
2018-11-27T02:58:48.547Z,40.00
2018-11-27T03:01:16.205Z,37.53
2018-11-27T03:03:43.765Z,34.27
2018-11-27T03:06:11.315Z,42.57
2018-11-27T03:08:38.960Z,48.70
2018-11-27T03:11:10.453Z,43.83
2018-11-27T03:13:38.104Z,45.23
2018-11-27T03:16:05.778Z,47.43
2018-11-27T03:18:33.424Z,45.57
2018-11-27T03:21:01.263Z,46.37
2018-11-27T03:23:28.905Z,52.57
2018-11-27T03:25:56.548Z,53.77
2018-11-27T03:28:24.195Z,51.60
2018-11-27T03:30:51.834Z,48.47
2018-11-27T03:33:19.502Z,44.50
2018-11-27T03:35:47.301Z,45.47
2018-11-27T03:38:14.930Z,41.80
2018-11-27T03:40:42.531Z,48.33
2018-11-27T03:43:10.225Z,44.53
2018-11-27T03:45:37.856Z,45.13
2018-11-27T03:48:05.571Z,41.30
2018-11-27T03:50:33.427Z,42.37
2018-11-27T03:53:01.048Z,48.17
2018-11-27T03:55:28.810Z,40.87
2018-11-27T03:57:56.391Z,46.30
2018-11-27T04:00:25.714Z,43.77
2018-11-27T04:03:24.283Z,35.10
2018-11-27T04:05:52.033Z,39.93
2018-11-27T04:08:19.688Z,41.50
2018-11-27T04:10:47.317Z,38.27
2018-11-27T04:13:14.931Z,31.97
2018-11-27T04:15:42.661Z,34.07
2018-11-27T04:18:10.262Z,44.63
2018-11-27T04:20:37.940Z,35.70
2018-11-27T04:23:05.586Z,43.70
2018-11-27T04:25:33.190Z,43.10
2018-11-27T04:28:00.785Z,41.70
2018-11-27T04:30:28.324Z,35.10
2018-11-27T04:32:55.958Z,34.47
2018-11-27T04:35:23.547Z,36.80
2018-11-27T04:37:51.118Z,36.53
2018-11-27T04:40:19.575Z,34.27
2018-11-27T04:42:47.184Z,37.93
2018-11-27T04:45:16.855Z,33.00
2018-11-27T04:47:44.458Z,33.03
2018-11-27T04:50:13.097Z,38.77
2018-11-27T04:52:40.913Z,30.00
2018-11-27T04:55:10.804Z,37.13
2018-11-27T04:57:38.424Z,37.30
2018-11-27T05:00:12.379Z,33.57
2018-11-27T05:02:39.988Z,32.73
2018-11-27T05:05:08.017Z,35.03
2018-11-27T05:07:35.636Z,28.20
2018-11-27T05:10:05.326Z,25.63
2018-11-27T05:12:32.918Z,32.87
2018-11-27T05:15:00.627Z,24.87
2018-11-27T05:17:28.217Z,40.77
2018-11-27T05:19:55.810Z,36.13
2018-11-27T05:22:23.438Z,40.33
2018-11-27T05:24:51.143Z,40.27
2018-11-27T05:27:18.739Z,35.20
2018-11-27T05:29:46.325Z,32.93
2018-11-27T05:32:13.884Z,32.23
2018-11-27T05:34:41.692Z,31.47
2018-11-27T05:37:09.315Z,28.33
2018-11-27T05:39:37.038Z,33.53
2018-11-27T05:42:05.755Z,45.93
2018-11-27T05:44:33.465Z,42.47
2018-11-27T05:47:01.141Z,39.93
2018-11-27T05:49:28.961Z,35.57
2018-11-27T05:51:57.349Z,33.57
2018-11-27T05:54:24.979Z,29.80
2018-11-27T05:56:52.565Z,41.37
2018-11-27T05:59:20.141Z,36.33
2018-11-27T06:01:47.797Z,42.77
2018-11-27T06:04:15.391Z,36.40
2018-11-27T06:06:42.981Z,33.77
2018-11-27T06:09:10.560Z,32.07
2018-11-27T06:11:39.037Z,32.30
2018-11-27T06:14:06.699Z,37.03
2018-11-27T06:16:34.631Z,32.30
2018-11-27T06:19:02.314Z,29.53
2018-11-27T06:21:30.007Z,30.20
2018-11-27T06:23:57.725Z,33.33
2018-11-27T06:26:25.384Z,27.90
2018-11-27T06:28:52.994Z,34.73
2018-11-27T06:31:20.622Z,48.57
2018-11-27T06:33:48.276Z,37.77
2018-11-27T06:36:15.966Z,33.63
2018-11-27T06:38:43.699Z,27.77
2018-11-27T06:41:11.293Z,25.23
2018-11-27T06:43:38.879Z,30.63
2018-11-27T06:46:06.526Z,34.93
2018-11-27T06:48:34.108Z,35.57
2018-11-27T06:51:01.798Z,28.47
2018-11-27T06:53:29.473Z,32.87
2018-11-27T06:55:57.121Z,35.43
2018-11-27T06:58:24.742Z,36.37
2018-11-27T07:00:52.392Z,24.00
2018-11-27T07:03:20.023Z,24.50
2018-11-27T07:05:47.672Z,22.10
2018-11-27T07:08:15.244Z,17.57
2018-11-27T07:10:44.150Z,18.23
2018-11-27T07:13:19.135Z,17.63
2018-11-27T07:15:47.377Z,18.97
2018-11-27T07:18:14.963Z,27.13
2018-11-27T07:20:42.606Z,18.13
2018-11-27T07:23:10.495Z,25.03
2018-11-27T07:25:38.189Z,24.47
2018-11-27T07:28:05.933Z,21.67
2018-11-27T07:30:33.505Z,23.73
2018-11-27T07:33:01.083Z,23.37
2018-11-27T07:35:28.733Z,32.57
2018-11-27T07:37:56.397Z,30.20
2018-11-27T07:40:25.366Z,25.40
2018-11-27T07:42:54.435Z,32.17
2018-11-27T07:45:23.014Z,35.87
2018-11-27T07:47:50.608Z,33.00
2018-11-27T07:50:18.337Z,36.70
2018-11-27T07:52:46.082Z,34.47
2018-11-27T07:55:15.597Z,38.30
2018-11-27T07:57:43.201Z,34.27
2018-11-27T08:00:14.591Z,32.63
2018-11-27T08:02:43.037Z,32.57
2018-11-27T08:05:12.801Z,36.40
2018-11-27T08:07:41.498Z,43.93
2018-11-27T08:10:15.321Z,48.07
2018-11-27T08:12:42.933Z,38.13
2018-11-27T08:15:11.828Z,35.60
2018-11-27T08:17:40.120Z,34.50
2018-11-27T08:20:24.545Z,40.33
2018-11-27T08:22:52.162Z,38.17
2018-11-27T08:25:19.783Z,31.60
2018-11-27T08:27:47.402Z,33.83
2018-11-27T08:30:16.151Z,38.60
2018-11-27T08:32:43.855Z,34.80
2018-11-27T08:35:13.340Z,38.07
2018-11-27T08:37:41.310Z,31.90
2018-11-27T08:40:11.914Z,28.83
2018-11-27T08:42:39.525Z,34.30
2018-11-27T08:45:11.748Z,26.93
2018-11-27T08:47:39.392Z,23.20
2018-11-27T08:50:11.172Z,26.00
2018-11-27T08:52:38.807Z,21.13
2018-11-27T08:55:09.258Z,20.30
2018-11-27T08:57:36.902Z,33.60
2018-11-27T09:00:11.160Z,32.53
2018-11-27T09:02:38.741Z,31.23
2018-11-27T09:05:06.572Z,30.80
2018-11-27T09:07:34.386Z,31.17
2018-11-27T09:10:02.132Z,27.43
2018-11-27T09:12:29.881Z,31.80
2018-11-27T09:14:57.553Z,35.13
2018-11-27T09:17:25.215Z,24.90
2018-11-27T09:19:52.810Z,20.83
2018-11-27T09:22:20.423Z,23.67
2018-11-27T09:24:47.974Z,31.47
2018-11-27T09:27:15.589Z,33.90
2018-11-27T09:29:43.246Z,31.73
2018-11-27T09:32:10.903Z,24.83
2018-11-27T09:34:38.514Z,24.43
2018-11-27T09:37:06.163Z,27.57
2018-11-27T09:39:33.765Z,26.57
2018-11-27T09:42:01.793Z,29.27
2018-11-27T09:44:29.395Z,28.53
2018-11-27T09:46:56.995Z,26.37
2018-11-27T09:49:24.621Z,22.77
2018-11-27T09:51:52.190Z,17.13
2018-11-27T09:54:19.894Z,20.30
2018-11-27T09:56:47.512Z,17.50
2018-11-27T09:59:15.159Z,22.43
2018-11-27T10:01:42.749Z,22.43
2018-11-27T10:04:10.356Z,31.63
2018-11-27T10:06:37.999Z,28.60
2018-11-27T10:09:07.779Z,25.83
2018-11-27T10:11:35.365Z,22.07
2018-11-27T10:14:03.093Z,22.53
2018-11-27T10:16:30.634Z,25.37
2018-11-27T10:18:58.257Z,19.87
2018-11-27T10:21:25.843Z,19.67
2018-11-27T10:23:53.461Z,17.47
2018-11-27T10:26:21.122Z,20.33
2018-11-27T10:28:48.719Z,17.13
2018-11-27T10:31:16.267Z,14.00
2018-11-27T10:33:44.026Z,14.73
2018-11-27T10:36:12.610Z,15.97
2018-11-27T10:38:40.404Z,12.83
2018-11-27T10:41:07.965Z,18.23
2018-11-27T10:43:35.599Z,22.30
2018-11-27T10:46:03.146Z,19.53
2018-11-27T10:48:30.731Z,16.07
2018-11-27T10:50:58.279Z,20.27
2018-11-27T10:53:26.074Z,18.77
2018-11-27T10:55:53.717Z,18.70
2018-11-27T10:58:21.452Z,17.87
2018-11-27T11:00:54.732Z,19.87
2018-11-27T11:03:37.185Z,18.23
2018-11-27T11:06:06.586Z,14.70
2018-11-27T11:08:34.208Z,21.23
2018-11-27T11:11:01.834Z,24.37
2018-11-27T11:13:29.462Z,22.50
2018-11-27T11:15:57.082Z,21.10
2018-11-27T11:18:24.710Z,15.43
2018-11-27T11:20:52.317Z,16.83
2018-11-27T11:23:20.081Z,16.03
2018-11-27T11:25:47.665Z,19.53
2018-11-27T11:28:16.899Z,22.53
2018-11-27T11:30:44.470Z,24.10
2018-11-27T11:33:12.064Z,24.23
2018-11-27T11:35:39.749Z,19.07
2018-11-27T11:38:07.366Z,19.33
2018-11-27T11:40:34.942Z,18.77
2018-11-27T11:43:02.553Z,19.37
2018-11-27T11:45:30.241Z,22.17
2018-11-27T11:47:57.808Z,18.87
2018-11-27T11:50:26.770Z,16.30
2018-11-27T11:52:55.857Z,20.20
2018-11-27T11:55:23.447Z,24.03
2018-11-27T11:57:51.490Z,22.33
2018-11-27T12:00:21.956Z,23.10
2018-11-27T12:02:49.562Z,24.03
2018-11-27T12:05:17.142Z,23.40
2018-11-27T12:07:44.761Z,23.50
2018-11-27T12:10:13.522Z,20.43
2018-11-27T12:12:41.825Z,24.13
2018-11-27T12:15:12.575Z,17.33
2018-11-27T12:17:40.664Z,23.90
2018-11-27T12:20:10.602Z,24.93
2018-11-27T12:22:38.485Z,22.67
2018-11-27T12:25:07.958Z,19.50
2018-11-27T12:27:35.739Z,19.57
2018-11-27T12:30:04.390Z,20.83
2018-11-27T12:32:32.064Z,20.07
2018-11-27T12:34:59.866Z,18.17
2018-11-27T12:37:27.624Z,20.33
2018-11-27T12:39:55.197Z,23.97
2018-11-27T12:42:22.745Z,21.47
2018-11-27T12:44:50.898Z,22.20
2018-11-27T12:47:18.503Z,21.03
2018-11-27T12:49:46.209Z,25.13
2018-11-27T12:52:13.961Z,26.40
2018-11-27T12:54:41.982Z,25.10
2018-11-27T12:57:09.548Z,25.33
2018-11-27T12:59:37.125Z,23.90
2018-11-27T13:02:07.656Z,23.07
2018-11-27T13:04:35.244Z,20.30
2018-11-27T13:07:02.796Z,19.03
2018-11-27T13:09:30.402Z,16.93
2018-11-27T13:11:58.066Z,17.43
2018-11-27T13:14:25.663Z,17.23
2018-11-27T13:16:53.266Z,16.13
2018-11-27T13:19:20.882Z,16.57
2018-11-27T13:21:48.634Z,22.27
2018-11-27T13:24:16.296Z,28.30
2018-11-27T13:26:43.924Z,28.10
2018-11-27T13:29:11.582Z,26.57
2018-11-27T13:31:39.127Z,25.80
2018-11-27T13:34:09.842Z,20.83
2018-11-27T13:36:37.517Z,19.03
2018-11-27T13:39:16.539Z,17.13
2018-11-27T13:41:44.151Z,16.43
2018-11-27T13:44:11.749Z,17.80
2018-11-27T13:46:39.447Z,14.17
2018-11-27T13:49:07.015Z,18.50
2018-11-27T13:51:34.638Z,20.40
2018-11-27T13:54:02.323Z,20.03
2018-11-27T13:56:30.064Z,20.37
2018-11-27T13:58:58.907Z,18.50
2018-11-27T14:01:26.538Z,20.30
2018-11-27T14:03:54.243Z,26.17
2018-11-27T14:06:21.914Z,22.60
2018-11-27T14:08:49.537Z,21.20
2018-11-27T14:11:19.167Z,22.97
2018-11-27T14:13:44.811Z,22.03
2018-11-27T14:16:12.438Z,23.13
2018-11-27T14:18:40.153Z,24.37
2018-11-27T14:21:07.806Z,21.80
2018-11-27T14:23:35.395Z,22.33
2018-11-27T14:26:03.073Z,21.00
2018-11-27T14:28:30.661Z,22.83
2018-11-27T14:30:58.266Z,21.37
2018-11-27T14:33:25.866Z,20.90
2018-11-27T14:35:53.538Z,19.83
2018-11-27T14:38:21.148Z,16.83
2018-11-27T14:40:48.786Z,16.30
2018-11-27T14:43:16.362Z,15.00
2018-11-27T14:45:44.007Z,16.23
2018-11-27T14:48:11.713Z,15.40
2018-11-27T14:50:39.333Z,16.47
2018-11-27T14:53:06.958Z,17.87
2018-11-27T14:55:35.175Z,15.10
2018-11-27T14:58:02.767Z,15.60
2018-11-27T15:00:30.509Z,14.90
2018-11-27T15:02:58.419Z,15.93
2018-11-27T15:05:35.207Z,19.40
2018-11-27T15:08:03.986Z,21.70
2018-11-27T15:10:31.628Z,27.10
2018-11-27T15:12:59.229Z,23.87
2018-11-27T15:15:26.801Z,25.33
2018-11-27T15:17:54.432Z,22.80
2018-11-27T15:20:22.492Z,26.17
2018-11-27T15:22:50.101Z,22.03
2018-11-27T15:25:17.785Z,19.93
2018-11-27T15:27:45.538Z,26.30
2018-11-27T15:30:17.486Z,19.17
2018-11-27T15:32:45.122Z,24.47
2018-11-27T15:35:13.067Z,26.97
2018-11-27T15:37:40.917Z,22.43
2018-11-27T15:40:39.357Z,19.13
2018-11-27T15:43:07.000Z,18.87
2018-11-27T15:45:34.728Z,16.20
2018-11-27T15:48:03.464Z,17.17
2018-11-27T15:50:31.150Z,14.33
2018-11-27T15:53:02.058Z,20.77
2018-11-27T15:55:31.933Z,13.90
2018-11-27T15:58:01.182Z,14.20
2018-11-27T16:00:28.816Z,13.43
2018-11-27T16:02:56.398Z,14.20
2018-11-27T16:05:24.016Z,14.57
2018-11-27T16:07:51.689Z,20.60
2018-11-27T16:10:19.602Z,16.43
2018-11-27T16:12:47.287Z,14.43
2018-11-27T16:15:16.593Z,13.83
2018-11-27T16:17:44.268Z,13.63
2018-11-27T16:20:15.096Z,11.80
2018-11-27T16:22:43.404Z,13.43
2018-11-27T16:25:15.143Z,17.50
2018-11-27T16:27:42.841Z,15.67
2018-11-27T16:30:13.391Z,16.23
2018-11-27T16:32:41.108Z,16.73
2018-11-27T16:35:09.743Z,17.10
2018-11-27T16:37:37.397Z,15.30
2018-11-27T16:40:09.438Z,18.37
2018-11-27T16:42:37.135Z,17.53
2018-11-27T16:45:06.608Z,14.87
2018-11-27T16:47:34.223Z,19.87
2018-11-27T16:50:01.829Z,16.10
2018-11-27T16:52:29.492Z,15.53
2018-11-27T16:54:57.090Z,34.43
2018-11-27T16:57:24.742Z,33.50
2018-11-27T16:59:52.338Z,26.27
2018-11-27T17:02:19.983Z,22.87
2018-11-27T17:04:47.829Z,25.67
2018-11-27T17:07:15.422Z,25.50
2018-11-27T17:09:43.104Z,22.37
2018-11-27T17:12:10.710Z,25.87
2018-11-27T17:14:38.433Z,28.57
2018-11-27T17:17:06.105Z,26.23
2018-11-27T17:19:33.773Z,22.53
2018-11-27T17:22:01.465Z,23.23
2018-11-27T17:24:29.129Z,19.60
2018-11-27T17:26:56.715Z,15.40
2018-11-27T17:29:24.307Z,17.27
2018-11-27T17:31:51.903Z,15.77
2018-11-27T17:34:19.568Z,13.33
2018-11-27T17:36:47.171Z,12.43
2018-11-27T17:39:14.820Z,11.80
2018-11-27T17:41:42.432Z,12.40
2018-11-27T17:44:12.297Z,10.93
2018-11-27T17:46:39.901Z,9.63
2018-11-27T17:49:07.718Z,10.33
2018-11-27T17:51:35.342Z,11.70
2018-11-27T17:54:02.955Z,10.87
2018-11-27T17:56:30.534Z,11.27
2018-11-27T17:58:58.163Z,13.47
2018-11-27T18:01:25.784Z,11.73
2018-11-27T18:03:53.426Z,12.93
2018-11-27T18:06:20.984Z,12.47
2018-11-27T18:08:48.668Z,13.13
2018-11-27T18:11:16.298Z,13.00
2018-11-27T18:13:43.894Z,19.23
2018-11-27T18:16:11.451Z,23.03
2018-11-27T18:18:39.106Z,29.60
2018-11-27T18:21:10.046Z,23.93
2018-11-27T18:23:37.691Z,25.43
2018-11-27T18:26:05.373Z,24.63
2018-11-27T18:28:33.174Z,28.10
2018-11-27T18:31:00.799Z,29.40
2018-11-27T18:33:28.498Z,24.77
2018-11-27T18:35:56.180Z,24.93
2018-11-27T18:38:23.783Z,23.53
2018-11-27T18:40:51.509Z,21.33
2018-11-27T18:43:19.079Z,20.43
2018-11-27T18:45:46.765Z,18.07
2018-11-27T18:48:14.408Z,17.90
2018-11-27T18:50:42.132Z,18.87
2018-11-27T18:53:09.829Z,15.33
2018-11-27T18:55:37.411Z,16.13
2018-11-27T18:58:05.228Z,15.97
2018-11-27T19:00:33.346Z,22.20
2018-11-27T19:03:01.191Z,24.13
2018-11-27T19:05:28.771Z,20.10
2018-11-27T19:07:56.378Z,21.60
2018-11-27T19:10:25.325Z,23.93
2018-11-27T19:12:53.022Z,26.03
2018-11-27T19:15:25.119Z,21.70
2018-11-27T19:17:55.254Z,18.07
2018-11-27T19:20:22.915Z,16.13
2018-11-27T19:22:50.498Z,19.50
2018-11-27T19:25:18.359Z,21.73
2018-11-27T19:27:45.965Z,26.93
2018-11-27T19:30:19.049Z,24.47
2018-11-27T19:32:46.711Z,17.30
2018-11-27T19:35:17.565Z,16.27
2018-11-27T19:37:46.004Z,18.23
2018-11-27T19:40:17.119Z,18.00
2018-11-27T19:42:44.728Z,15.03
2018-11-27T19:45:15.747Z,11.87
2018-11-27T19:47:43.346Z,22.40
2018-11-27T19:50:11.863Z,31.47
2018-11-27T19:52:40.012Z,32.20
2018-11-27T19:55:09.295Z,30.93
2018-11-27T19:57:36.871Z,36.13
2018-11-27T20:00:23.345Z,33.00
2018-11-27T20:02:51.337Z,35.47
2018-11-27T20:05:20.192Z,35.20
2018-11-27T20:07:48.150Z,33.43
2018-11-27T20:10:16.269Z,27.90
2018-11-27T20:12:44.151Z,26.73
2018-11-27T20:15:13.358Z,22.23
2018-11-27T20:17:41.113Z,24.93
2018-11-27T20:20:10.197Z,21.43
2018-11-27T20:22:37.875Z,17.37
2018-11-27T20:25:07.460Z,23.53
2018-11-27T20:27:35.068Z,19.20
2018-11-27T20:30:02.768Z,21.10
2018-11-27T20:32:33.936Z,22.53
2018-11-27T20:34:58.163Z,24.27
2018-11-27T20:37:25.878Z,20.60
2018-11-27T20:39:53.499Z,19.50
2018-11-27T20:42:21.241Z,19.07
2018-11-27T20:44:48.867Z,16.47
2018-11-27T20:47:16.494Z,15.20
2018-11-27T20:49:44.158Z,11.63
2018-11-27T20:52:11.783Z,12.53
2018-11-27T20:54:39.628Z,10.30
2018-11-27T20:57:09.455Z,10.30
2018-11-27T20:59:37.089Z,8.63
2018-11-27T21:02:05.148Z,12.40
2018-11-27T21:04:32.862Z,10.00
2018-11-27T21:07:00.597Z,8.83
2018-11-27T21:09:28.314Z,9.10
2018-11-27T21:11:56.166Z,9.93
2018-11-27T21:14:23.732Z,8.93
2018-11-27T21:16:51.391Z,9.67
2018-11-27T21:19:19.064Z,10.03
2018-11-27T21:21:46.807Z,9.53
2018-11-27T21:24:14.711Z,9.40
2018-11-27T21:26:42.629Z,9.17
2018-11-27T21:29:10.261Z,8.47
2018-11-27T21:31:38.073Z,8.30
2018-11-27T21:34:05.692Z,13.93
2018-11-27T21:36:33.372Z,12.53
2018-11-27T21:39:00.942Z,10.57
2018-11-27T21:41:28.551Z,11.63
2018-11-27T21:43:56.471Z,10.33
2018-11-27T21:46:25.370Z,10.47
2018-11-27T21:48:53.189Z,12.00
2018-11-27T21:51:21.389Z,12.97
2018-11-27T21:53:48.973Z,9.17
2018-11-27T21:56:16.561Z,8.50
2018-11-27T21:58:44.242Z,10.23
2018-11-27T22:01:11.897Z,9.43
2018-11-27T22:03:39.569Z,11.53
2018-11-27T22:06:07.217Z,13.17
2018-11-27T22:08:34.911Z,18.60
2018-11-27T22:11:02.758Z,16.37
2018-11-27T22:13:30.489Z,15.00
2018-11-27T22:15:58.142Z,17.43
2018-11-27T22:18:25.790Z,12.57
2018-11-27T22:20:53.438Z,11.60
2018-11-27T22:23:21.091Z,16.80
2018-11-27T22:25:48.685Z,17.23
2018-11-27T22:28:16.288Z,15.20
2018-11-27T22:30:43.982Z,18.40
2018-11-27T22:33:11.794Z,16.33
2018-11-27T22:35:39.415Z,11.80
2018-11-27T22:38:07.553Z,9.63
2018-11-27T22:40:35.137Z,9.43
2018-11-27T22:43:03.032Z,10.47
2018-11-27T22:45:33.152Z,13.43
2018-11-27T22:48:00.897Z,11.53
2018-11-27T22:50:28.523Z,11.90
2018-11-27T22:52:56.185Z,12.07
2018-11-27T22:55:23.811Z,14.80
2018-11-27T22:57:51.510Z,12.47
2018-11-27T23:00:29.466Z,11.67
2018-11-27T23:02:57.165Z,8.83
2018-11-27T23:05:24.785Z,8.27
2018-11-27T23:07:52.450Z,8.67
2018-11-27T23:10:20.108Z,10.30
2018-11-27T23:12:47.830Z,7.73
2018-11-27T23:15:16.487Z,7.60
2018-11-27T23:17:44.229Z,8.97
2018-11-27T23:20:14.799Z,15.43
2018-11-27T23:22:42.660Z,14.53
2018-11-27T23:25:11.342Z,13.10
2018-11-27T23:27:39.045Z,10.07
2018-11-27T23:30:11.259Z,12.60
2018-11-27T23:32:38.956Z,13.23
2018-11-27T23:35:06.730Z,13.90
2018-11-27T23:37:34.423Z,11.53
2018-11-27T23:40:02.267Z,9.73
2018-11-27T23:42:29.967Z,8.87
2018-11-27T23:44:58.798Z,7.20
2018-11-27T23:47:26.571Z,7.30
2018-11-27T23:49:54.439Z,7.40
2018-11-27T23:52:22.128Z,7.27
2018-11-27T23:54:49.770Z,6.17
2018-11-27T23:57:17.438Z,5.97
2018-11-27T23:59:45.118Z,6.27
